Time;durP1;ratioP1;P1;durP2;ratioP2;P2;SDS_P1;SDS_P2;PMS_P1;PMS_P2;Temp;Humidity;BMP_temperature;BMP_pressure;BME280_temperature;BME280_humidity;BME280_pressure;Samples;Min_cycle;Max_cycle;Signal;HPM_P1;HPM_P2
2023/06/15 00:00:49;;;;;;;4.90;3.30;;;;;;;18.31;50.52;101460.41;3582801;39;20059;-68
2023/06/15 00:03:16;;;;;;;5.03;3.42;;;;;;;18.65;50.56;101520.16;3582142;39;20094;-68
2023/06/15 00:05:42;;;;;;;3.90;3.58;;;;;;;18.85;49.97;101562.06;3574709;40;20055;-67
2023/06/15 00:08:08;;;;;;;4.07;3.50;;;;;;;18.85;50.50;101561.22;3583969;39;20092;-68
2023/06/15 00:10:33;;;;;;;4.68;3.50;;;;;;;18.83;49.59;101555.03;3586425;39;20068;-68
2023/06/15 00:12:59;;;;;;;3.88;3.55;;;;;;;18.83;51.92;101568.66;3581790;40;20066;-68
2023/06/15 00:15:27;;;;;;;5.32;3.70;;;;;;;18.77;50.78;101557.28;3582989;40;20060;-68
2023/06/15 00:17:54;;;;;;;5.70;3.60;;;;;;;18.56;50.96;101519.09;3581437;39;20048;-67
2023/06/15 00:20:22;;;;;;;4.20;3.75;;;;;;;18.75;51.92;101556.56;3580684;39;20060;-68
2023/06/15 00:22:51;;;;;;;4.07;3.70;;;;;;;18.69;51.21;101553.44;3582314;40;20055;-68
2023/06/15 00:25:17;;;;;;;4.05;3.65;;;;;;;18.72;51.64;101564.97;3583202;40;20055;-68
2023/06/15 00:27:43;;;;;;;6.53;3.38;;;;;;;18.70;50.75;101563.34;3582923;40;20068;-68
2023/06/15 00:30:10;;;;;;;6.93;4.00;;;;;;;18.67;51.66;101569.91;3580987;40;20052;-68
2023/06/15 00:32:36;;;;;;;4.20;3.88;;;;;;;18.65;51.30;101566.47;3584456;39;20120;-68
2023/06/15 00:35:01;;;;;;;4.93;4.03;;;;;;;18.65;51.14;101563.75;3581141;40;20072;-68
2023/06/15 00:37:27;;;;;;;4.63;3.88;;;;;;;18.63;50.67;101581.19;3580955;40;20055;-67
2023/06/15 00:39:53;;;;;;;3.97;3.67;;;;;;;18.62;52.06;101576.75;3581810;40;20059;-68
2023/06/15 00:42:18;;;;;;;6.50;4.13;;;;;;;18.61;51.52;101575.00;3582573;40;20052;-68
2023/06/15 00:44:44;;;;;;;7.55;3.97;;;;;;;18.56;52.27;101581.72;3582295;40;20707;-68
2023/06/15 00:47:10;;;;;;;5.18;4.05;;;;;;;18.54;52.22;101577.38;3583257;39;20051;-69
2023/06/15 00:49:36;;;;;;;5.85;3.97;;;;;;;18.40;51.90;101561.34;3582915;40;20051;-69
2023/06/15 00:52:03;;;;;;;4.32;3.85;;;;;;;18.50;51.58;101579.50;3580808;40;20079;-68
2023/06/15 00:54:30;;;;;;;4.22;3.80;;;;;;;18.48;52.55;101584.19;3582799;39;20301;-69
2023/06/15 00:56:57;;;;;;;6.30;4.32;;;;;;;18.46;51.47;101588.06;3581543;39;20092;-69
2023/06/15 00:59:23;;;;;;;7.57;4.07;;;;;;;18.43;52.09;101583.72;3583441;39;20051;-67
2023/06/15 01:01:49;;;;;;;5.55;4.40;;;;;;;18.41;52.74;101576.69;3581749;40;20158;-68
2023/06/15 01:04:14;;;;;;;4.90;3.97;;;;;;;18.39;52.02;101584.09;3581385;40;20444;-69
2023/06/15 01:06:51;;;;;;;4.30;3.90;;;;;;;18.38;52.82;101579.66;3581724;40;20056;-68
2023/06/15 01:09:21;;;;;;;4.63;4.10;;;;;;;18.36;51.86;101582.50;3583077;40;20056;-68
2023/06/15 01:11:55;;;;;;;4.63;4.07;;;;;;;18.32;52.42;101576.44;3582278;40;20391;-68
2023/06/15 01:14:26;;;;;;;5.22;4.30;;;;;;;17.99;53.60;101530.25;3582222;39;20381;-68
2023/06/15 01:16:59;;;;;;;4.25;3.83;;;;;;;18.24;53.06;101573.50;3581113;40;20060;-68
2023/06/15 01:19:57;;;;;;;4.63;4.10;;;;;;;18.18;52.69;101584.88;3583088;40;20062;-68
2023/06/15 01:22:58;;;;;;;5.03;4.32;;;;;;;18.14;52.54;101582.53;3582787;40;20087;-68
2023/06/15 01:25:53;;;;;;;5.35;4.30;;;;;;;18.10;53.77;101577.34;3583110;40;20368;-69
2023/06/15 01:28:20;;;;;;;4.40;4.00;;;;;;;18.06;53.72;101589.47;3583269;39;20047;-69
2023/06/15 01:30:54;;;;;;;6.55;4.72;;;;;;;18.03;54.14;101586.13;3584552;40;20374;-68
2023/06/15 01:33:21;;;;;;;6.68;4.57;;;;;;;18.01;53.05;101588.09;3583519;40;20110;-68
2023/06/15 01:35:47;;;;;;;5.55;4.53;;;;;;;17.77;53.40;101558.31;3580889;40;20364;-68
2023/06/15 01:38:16;;;;;;;6.30;4.90;;;;;;;17.86;54.17;101574.75;3582517;40;20391;-68
2023/06/15 01:40:49;;;;;;;5.45;4.68;;;;;;;17.88;53.71;101587.38;3583616;40;20129;-68
2023/06/15 01:43:21;;;;;;;7.05;4.60;;;;;;;17.82;53.79;101576.00;3583521;39;20368;-68
2023/06/15 01:45:50;;;;;;;5.60;5.10;;;;;;;17.84;54.71;101587.63;3582434;40;20056;-69
2023/06/15 01:48:16;;;;;;;10.25;4.93;;;;;;;17.69;54.11;101567.06;3582847;40;20048;-68
2023/06/15 01:50:42;;;;;;;5.18;4.72;;;;;;;17.78;54.81;101588.09;3583328;39;20065;-69
2023/06/15 01:53:09;;;;;;;5.53;4.90;;;;;;;17.74;54.51;101589.31;3581825;39;20292;-68
2023/06/15 01:55:35;;;;;;;6.18;5.22;;;;;;;17.72;54.17;101588.56;3582384;39;20518;-68
2023/06/15 01:58:01;;;;;;;7.18;5.20;;;;;;;17.69;54.73;101591.53;3582794;40;20095;-68
2023/06/15 02:00:27;;;;;;;5.93;4.93;;;;;;;17.63;54.62;101586.56;3582850;40;20501;-68
2023/06/15 02:02:53;;;;;;;5.50;5.00;;;;;;;17.64;55.26;101583.75;3581704;40;20548;-68
2023/06/15 02:05:19;;;;;;;5.35;4.85;;;;;;;17.62;55.61;101590.28;3581523;40;20134;-68
2023/06/15 02:07:45;;;;;;;5.57;5.07;;;;;;;17.57;56.01;101587.94;3582109;40;20359;-68
2023/06/15 02:10:11;;;;;;;6.55;4.95;;;;;;;17.54;56.35;101590.91;3582420;39;20406;-68
2023/06/15 02:12:36;;;;;;;6.97;5.20;;;;;;;17.50;56.13;101583.97;3583031;40;20059;-68
2023/06/15 02:15:03;;;;;;;6.80;5.53;;;;;;;17.47;55.89;101573.31;3581227;40;20064;-68
2023/06/15 02:17:32;;;;;;;5.32;4.90;;;;;;;17.52;55.70;101579.28;3582364;40;20303;-68
2023/06/15 02:19:58;;;;;;;5.50;5.00;;;;;;;17.50;55.87;101588.53;3580506;40;20044;-68
2023/06/15 02:22:24;;;;;;;6.65;5.20;;;;;;;17.47;55.55;101584.19;3581487;40;20433;-68
2023/06/15 02:24:49;;;;;;;6.70;5.38;;;;;;;17.45;56.28;101590.78;3581724;39;20051;-68
2023/06/15 02:27:15;;;;;;;8.13;5.40;;;;;;;17.44;56.30;101599.88;3580868;40;20753;-68
2023/06/15 02:29:41;;;;;;;6.57;5.63;;;;;;;17.42;56.40;101594.59;3581111;40;20099;-69
2023/06/15 02:32:09;;;;;;;6.28;5.45;;;;;;;17.35;55.83;101599.66;3581028;40;20398;-69
2023/06/15 02:34:36;;;;;;;6.03;5.43;;;;;;;17.35;56.25;101591.50;3582219;40;20582;-69
2023/06/15 02:37:02;;;;;;;7.03;5.45;;;;;;;17.33;56.85;101598.03;3580734;40;20063;-69
2023/06/15 02:39:28;;;;;;;9.30;5.40;;;;;;;17.34;56.30;101599.75;3582611;39;20134;-70
2023/06/15 02:41:54;;;;;;;6.75;4.85;;;;;;;17.32;56.69;101602.59;3581272;40;20058;-69
2023/06/15 02:44:21;;;;;;;6.45;5.63;;;;;;;17.29;56.70;101611.00;3582273;40;20060;-69
2023/06/15 02:46:46;;;;;;;9.93;5.20;;;;;;;17.28;56.74;101606.53;3583704;39;20054;-69
2023/06/15 02:49:12;;;;;;;8.85;5.60;;;;;;;17.30;57.13;101614.56;3582540;39;20052;-69
2023/06/15 02:51:39;;;;;;;5.95;5.45;;;;;;;17.26;57.04;101611.22;3583919;39;20064;-69
2023/06/15 02:54:08;;;;;;;6.43;5.82;;;;;;;17.16;57.18;101592.06;3581410;40;20063;-68
2023/06/15 02:56:37;;;;;;;7.03;5.90;;;;;;;16.68;57.17;101520.59;3582835;40;20064;-68
2023/06/15 02:59:03;;;;;;;7.85;6.05;;;;;;;16.48;57.52;101487.69;3581313;40;20100;-69
2023/06/15 03:01:37;;;;;;;7.40;5.53;;;;;;;17.17;57.02;101604.66;3582029;40;20373;-68
2023/06/15 03:04:09;;;;;;;7.30;5.70;;;;;;;17.18;57.97;101613.66;3581411;40;20064;-68
2023/06/15 03:06:38;;;;;;;8.27;6.10;;;;;;;17.18;57.29;101613.66;3582203;39;20067;-68
2023/06/15 03:09:06;;;;;;;6.68;5.85;;;;;;;17.13;57.82;101607.72;3581760;40;20064;-69
2023/06/15 03:11:32;;;;;;;7.53;6.05;;;;;;;17.10;57.95;101607.97;3582013;40;20063;-69
2023/06/15 03:13:58;;;;;;;7.18;6.05;;;;;;;17.10;58.16;101613.41;3580497;40;20051;-69
2023/06/15 03:16:25;;;;;;;7.63;6.07;;;;;;;17.11;58.48;101612.41;3580385;40;20052;-69
2023/06/15 03:18:52;;;;;;;6.10;5.60;;;;;;;17.09;57.94;101619.78;3581244;40;20125;-69
2023/06/15 03:21:22;;;;;;;8.02;6.10;;;;;;;17.08;58.43;101610.78;3574986;40;20048;-69
2023/06/15 03:23:49;;;;;;;6.80;5.78;;;;;;;17.04;58.29;101614.72;3580518;40;20485;-69
2023/06/15 03:26:16;;;;;;;6.78;6.18;;;;;;;17.01;58.64;101612.25;3578333;40;20117;-69
2023/06/15 03:28:43;;;;;;;7.88;6.10;;;;;;;16.97;58.26;101615.28;3581246;40;20102;-69
2023/06/15 03:31:10;;;;;;;6.97;6.30;;;;;;;16.93;58.14;101611.94;3579968;40;20052;-70
2023/06/15 03:33:36;;;;;;;8.55;6.28;;;;;;;16.94;58.79;101614.56;3581039;39;20052;-70
2023/06/15 03:36:03;;;;;;;8.55;6.30;;;;;;;16.94;58.75;101614.56;3580029;40;20068;-70
2023/06/15 03:38:28;;;;;;;6.82;5.90;;;;;;;16.94;59.19;101616.44;3581919;40;20276;-71
2023/06/15 03:40:54;;;;;;;8.15;6.25;;;;;;;16.90;58.88;101606.75;3580048;40;20054;-70
2023/06/15 03:43:19;;;;;;;6.72;5.95;;;;;;;16.94;58.76;101611.00;3579458;39;20050;-68
2023/06/15 03:45:45;;;;;;;6.72;6.13;;;;;;;16.94;59.54;101613.72;3581045;39;20051;-68
2023/06/15 03:48:11;;;;;;;7.88;6.10;;;;;;;16.94;59.19;101614.56;3579753;39;20280;-68
2023/06/15 03:50:36;;;;;;;7.68;6.38;;;;;;;16.93;59.06;101615.53;3580849;40;20314;-68
2023/06/15 03:53:02;;;;;;;9.07;6.20;;;;;;;16.91;59.55;101609.38;3579462;39;20102;-69
2023/06/15 03:55:29;;;;;;;7.78;5.97;;;;;;;16.85;59.43;101593.53;3580054;40;20457;-70
2023/06/15 03:57:54;;;;;;;8.27;5.93;;;;;;;16.98;59.50;101617.06;3580170;40;20310;-69
2023/06/15 04:00:20;;;;;;;7.60;6.88;;;;;;;16.94;60.10;101614.56;3579066;40;20056;-69
2023/06/15 04:02:46;;;;;;;6.80;6.13;;;;;;;16.98;60.11;101620.63;3579911;39;20334;-70
2023/06/15 04:05:11;;;;;;;10.38;6.50;;;;;;;17.01;60.08;101619.53;3578927;40;20056;-68
2023/06/15 04:07:37;;;;;;;7.20;5.82;;;;;;;16.97;60.51;101623.44;3584259;40;20284;-68
2023/06/15 04:10:04;;;;;;;7.00;5.90;;;;;;;16.98;60.55;101630.63;3581476;40;20067;-68
2023/06/15 04:12:29;;;;;;;6.50;5.80;;;;;;;16.72;60.71;101587.28;3580302;40;20271;-69
2023/06/15 04:14:55;;;;;;;7.30;6.28;;;;;;;16.97;61.08;101634.31;3580649;40;20052;-69
2023/06/15 04:17:21;;;;;;;6.78;6.18;;;;;;;16.99;61.74;101627.78;3582771;39;20466;-69
2023/06/15 04:19:46;;;;;;;6.78;6.07;;;;;;;16.99;60.71;101633.22;3585152;40;20048;-68
2023/06/15 04:22:12;;;;;;;6.97;6.32;;;;;;;16.99;61.05;101643.22;3581604;40;20052;-69
2023/06/15 04:24:37;;;;;;;8.48;6.40;;;;;;;17.01;60.91;101646.69;3581724;40;20076;-69
2023/06/15 04:27:03;;;;;;;8.30;7.10;;;;;;;17.04;61.09;101641.91;3584802;40;20144;-69
2023/06/15 04:29:30;;;;;;;9.13;6.13;;;;;;;17.08;60.93;101637.09;3581308;40;20346;-69
2023/06/15 04:31:57;;;;;;;7.20;6.50;;;;;;;16.93;60.46;101617.38;3582438;39;20048;-69
2023/06/15 04:34:26;;;;;;;7.15;6.20;;;;;;;16.77;60.39;101579.66;3579596;40;20048;-69
2023/06/15 04:36:56;;;;;;;7.72;6.70;;;;;;;17.18;60.63;101646.25;3580296;40;20121;-69
2023/06/15 04:39:27;;;;;;;9.43;6.72;;;;;;;17.22;60.33;101644.16;3584247;39;20358;-69
2023/06/15 04:41:57;;;;;;;8.88;6.90;;;;;;;17.26;60.73;101649.28;3580139;39;20063;-69
2023/06/15 04:44:23;;;;;;;8.02;6.47;;;;;;;17.30;60.35;101648.03;3584489;39;20056;-68
2023/06/15 04:46:48;;;;;;;9.45;7.05;;;;;;;17.35;60.64;101656.72;3583875;40;20059;-69
2023/06/15 04:49:14;;;;;;;9.63;6.88;;;;;;;17.32;60.37;101640.66;3579866;40;20059;-69
2023/06/15 04:51:40;;;;;;;12.50;7.45;;;;;;;17.40;59.85;101643.63;3580978;40;20048;-69
2023/06/15 04:54:05;;;;;;;10.00;7.25;;;;;;;17.49;59.65;101654.78;3582139;40;20059;-69
2023/06/15 04:56:31;;;;;;;10.20;7.53;;;;;;;17.50;59.71;101659.22;3582129;40;20048;-71
2023/06/15 04:58:57;;;;;;;12.40;7.25;;;;;;;17.61;60.02;101656.53;3583501;39;20693;-69
2023/06/15 05:01:22;;;;;;;9.90;7.35;;;;;;;17.67;60.28;101655.19;3580951;40;20072;-68
2023/06/15 05:03:48;;;;;;;11.60;7.35;;;;;;;17.71;59.73;101652.09;3572814;40;20490;-69
2023/06/15 05:06:13;;;;;;;10.77;6.78;;;;;;;17.40;59.83;101591.13;3581170;40;20067;-69
2023/06/15 05:08:40;;;;;;;14.07;8.07;;;;;;;17.85;60.00;101660.06;3584195;40;20068;-69
2023/06/15 05:11:06;;;;;;;12.07;7.38;;;;;;;17.89;59.31;101660.72;3583716;40;20260;-69
2023/06/15 05:13:32;;;;;;;14.68;7.78;;;;;;;17.91;59.05;101656.00;3582731;39;20060;-70
2023/06/15 05:15:57;;;;;;;10.70;7.97;;;;;;;18.04;59.45;101666.75;3581532;40;20091;-69
2023/06/15 05:18:23;;;;;;;10.15;7.43;;;;;;;18.11;58.87;101665.31;3582054;40;20052;-68
2023/06/15 05:20:48;;;;;;;8.15;7.32;;;;;;;18.16;58.53;101665.78;3584943;40;20048;-69
2023/06/15 05:23:14;;;;;;;11.07;8.20;;;;;;;18.22;57.44;101670.72;3581738;40;20052;-68
2023/06/15 05:25:40;;;;;;;10.48;7.68;;;;;;;18.31;57.54;101666.41;3581901;40;20055;-68
2023/06/15 05:28:06;;;;;;;11.63;7.85;;;;;;;18.34;57.93;101660.72;3582800;39;20110;-69
2023/06/15 05:30:31;;;;;;;13.02;7.93;;;;;;;18.45;58.16;101665.25;3580626;40;20146;-69
2023/06/15 05:32:57;;;;;;;12.23;7.80;;;;;;;18.49;58.11;101674.91;3580145;40;20068;-69
2023/06/15 05:35:23;;;;;;;10.60;8.13;;;;;;;18.54;57.51;101672.69;3581242;39;20640;-69
2023/06/15 05:37:48;;;;;;;9.30;8.00;;;;;;;18.63;57.07;101671.94;3582355;39;20064;-69
2023/06/15 05:40:14;;;;;;;12.32;8.10;;;;;;;18.71;56.93;101674.91;3582855;39;20064;-69
2023/06/15 05:42:40;;;;;;;11.80;8.02;;;;;;;18.76;56.90;101664.50;3585179;40;20050;-69
2023/06/15 05:45:06;;;;;;;12.15;8.27;;;;;;;18.89;56.96;101671.66;3583363;40;20399;-68
2023/06/15 05:47:32;;;;;;;11.30;8.10;;;;;;;18.78;56.26;101646.19;3581126;40;20059;-69
2023/06/15 05:50:01;;;;;;;10.73;7.30;;;;;;;19.06;54.96;101676.56;3582897;40;20122;-69
2023/06/15 05:52:27;;;;;;;12.57;8.07;;;;;;;19.18;54.92;101677.38;3584178;40;20127;-69
2023/06/15 05:54:53;;;;;;;14.38;7.97;;;;;;;19.31;54.72;101679.91;3581935;39;20052;-68
2023/06/15 05:57:18;;;;;;;15.70;7.13;;;;;;;19.35;54.45;101667.78;3580882;40;20048;-69
2023/06/15 05:59:46;;;;;;;10.23;7.10;;;;;;;19.44;53.82;101666.97;3579718;40;20059;-69
2023/06/15 06:02:12;;;;;;;10.98;7.20;;;;;;;19.65;53.68;101676.06;3583249;40;20060;-69
2023/06/15 06:04:38;;;;;;;12.60;7.20;;;;;;;19.77;53.58;101670.53;3579552;40;20427;-69
2023/06/15 06:07:06;;;;;;;10.02;7.18;;;;;;;19.90;53.64;101679.38;3579281;40;20060;-70
2023/06/15 06:09:33;;;;;;;11.02;7.43;;;;;;;20.02;51.85;101672.84;3582604;39;20063;-70
2023/06/15 06:12:00;;;;;;;11.70;7.68;;;;;;;20.17;52.64;101671.50;3579019;40;20067;-69
2023/06/15 06:14:27;;;;;;;12.57;6.70;;;;;;;20.28;51.39;101666.94;3578603;40;20452;-70
2023/06/15 06:16:53;;;;;;;8.55;7.68;;;;;;;20.46;51.77;101681.66;3578437;40;20105;-70
2023/06/15 06:19:19;;;;;;;12.98;6.93;;;;;;;20.61;50.92;101672.13;3580263;40;20066;-70
2023/06/15 06:21:45;;;;;;;11.75;6.75;;;;;;;20.78;50.96;101675.19;3582093;39;20390;-69
2023/06/15 06:24:10;;;;;;;7.50;6.43;;;;;;;20.83;50.12;101656.47;3581773;39;20382;-70
2023/06/15 06:26:36;;;;;;;10.02;6.93;;;;;;;21.07;50.13;101678.81;3580301;40;20048;-70
2023/06/15 06:29:03;;;;;;;8.88;6.07;;;;;;;21.22;49.96;101672.94;3581512;40;20060;-70
2023/06/15 06:31:28;;;;;;;11.40;6.32;;;;;;;21.38;49.15;101665.03;3578329;39;20398;-70
2023/06/15 06:33:54;;;;;;;10.27;6.10;;;;;;;21.44;48.42;101661.72;3578620;39;20128;-70
2023/06/15 06:36:20;;;;;;;8.35;5.85;;;;;;;21.72;47.32;101670.00;3578940;40;20052;-72
2023/06/15 06:38:45;;;;;;;9.98;6.18;;;;;;;21.94;47.38;101666.94;3581343;39;20052;-72
2023/06/15 06:41:11;;;;;;;11.60;6.15;;;;;;;22.03;46.48;101667.94;3582333;40;20055;-72
2023/06/15 06:43:37;;;;;;;6.78;5.55;;;;;;;21.83;46.72;101626.06;3581104;40;20044;-72
2023/06/15 06:46:03;;;;;;;11.88;5.85;;;;;;;22.32;46.79;101678.81;3579172;40;20105;-71
2023/06/15 06:48:28;;;;;;;7.72;5.93;;;;;;;21.86;45.88;101571.03;3578512;40;20055;-72
2023/06/15 06:50:54;;;;;;;7.72;5.55;;;;;;;22.65;46.13;101679.22;3578544;39;20394;-71
2023/06/15 06:53:19;;;;;;;9.15;6.05;;;;;;;22.82;45.61;101686.63;3578965;40;20558;-71
2023/06/15 06:55:47;;;;;;;13.85;6.68;;;;;;;22.98;45.26;101679.63;3577888;40;20068;-72
2023/06/15 06:58:14;;;;;;;9.95;6.22;;;;;;;23.14;44.39;101683.38;3578027;40;20048;-71
2023/06/15 07:00:39;;;;;;;10.55;6.15;;;;;;;23.14;44.06;101669.69;3578131;40;20071;-71
2023/06/15 07:03:05;;;;;;;9.90;5.50;;;;;;;23.33;43.82;101685.13;3580501;40;20382;-72
2023/06/15 07:05:31;;;;;;;10.57;6.35;;;;;;;23.48;43.61;101684.56;3581354;39;20508;-72
2023/06/15 07:07:56;;;;;;;10.02;6.63;;;;;;;23.60;42.52;101678.69;3583455;40;20265;-72
2023/06/15 07:10:22;;;;;;;10.65;6.47;;;;;;;23.77;41.99;101687.91;3580736;39;20066;-72
2023/06/15 07:12:48;;;;;;;11.40;6.60;;;;;;;23.94;43.72;101683.41;3582927;40;20056;-72
2023/06/15 07:15:13;;;;;;;11.30;6.72;;;;;;;24.00;42.45;101679.16;3580758;40;20059;-71
2023/06/15 07:17:39;;;;;;;10.65;5.90;;;;;;;24.17;42.55;101675.50;3582655;40;20372;-72
2023/06/15 07:20:06;;;;;;;11.50;5.40;;;;;;;24.24;41.50;101676.56;3583275;39;20484;-72
2023/06/15 07:22:31;;;;;;;7.00;4.80;;;;;;;24.33;40.07;101686.56;3583397;40;20137;-71
2023/06/15 07:24:57;;;;;;;11.68;4.90;;;;;;;24.22;41.70;101631.88;3582856;40;20055;-72
2023/06/15 07:27:23;;;;;;;10.15;5.10;;;;;;;24.39;41.37;101653.94;3581948;40;20067;-72
2023/06/15 07:29:48;;;;;;;7.18;4.40;;;;;;;24.77;40.20;101683.69;3576036;39;20052;-71
2023/06/15 07:32:14;;;;;;;6.93;4.20;;;;;;;24.89;40.04;101683.38;3582063;39;20055;-71
2023/06/15 07:34:40;;;;;;;7.38;4.35;;;;;;;24.94;39.15;101692.84;3581482;39;20395;-71
2023/06/15 07:37:06;;;;;;;9.77;4.40;;;;;;;25.05;39.35;101688.91;3583457;40;20090;-72
2023/06/15 07:39:32;;;;;;;7.32;4.38;;;;;;;25.21;40.15;101686.22;3583371;40;20082;-72
2023/06/15 07:41:58;;;;;;;6.93;4.40;;;;;;;25.32;38.36;101684.16;3580875;40;20068;-71
2023/06/15 07:44:24;;;;;;;4.55;3.70;;;;;;;25.37;37.18;101693.66;3582932;40;20067;-71
2023/06/15 07:46:49;;;;;;;5.53;3.88;;;;;;;25.39;39.20;101694.31;3581343;39;20379;-72
2023/06/15 07:49:15;;;;;;;7.93;4.25;;;;;;;25.37;37.13;101696.41;3581773;40;20055;-72
2023/06/15 07:51:41;;;;;;;5.25;4.10;;;;;;;25.31;38.40;101660.41;3575261;40;20114;-72
2023/06/15 07:54:06;;;;;;;7.00;3.78;;;;;;;25.62;38.38;101688.13;3583013;40;20063;-71
2023/06/15 07:56:32;;;;;;;6.55;3.35;;;;;;;25.82;36.13;101688.69;3580830;40;20303;-71
2023/06/15 07:58:58;;;;;;;6.03;3.50;;;;;;;25.98;36.39;101696.06;3582702;40;20111;-71
2023/06/15 08:01:23;;;;;;;5.88;3.85;;;;;;;26.10;35.60;101691.88;3581192;39;20056;-71
2023/06/15 08:03:49;;;;;;;6.90;3.53;;;;;;;26.03;35.55;101699.13;3574836;40;20056;-71
2023/06/15 08:06:15;;;;;;;5.80;3.25;;;;;;;25.97;35.06;101659.34;3581409;40;20063;-71
2023/06/15 08:08:41;;;;;;;4.65;3.10;;;;;;;26.30;34.89;101689.59;3581054;40;20088;-71
2023/06/15 08:11:06;;;;;;;3.90;3.30;;;;;;;26.40;34.11;101690.25;3580723;39;20060;-72
2023/06/15 08:13:32;;;;;;;7.10;3.33;;;;;;;26.27;33.31;101659.63;3581377;40;20056;-71
2023/06/15 08:15:59;;;;;;;5.15;3.17;;;;;;;26.55;33.02;101693.16;3582108;39;20493;-71
2023/06/15 08:18:26;;;;;;;4.32;3.10;;;;;;;26.75;33.27;101699.09;3581242;40;20048;-72
2023/06/15 08:20:52;;;;;;;7.72;3.42;;;;;;;26.91;32.78;101695.41;3581622;39;20647;-72
2023/06/15 08:23:18;;;;;;;6.00;3.38;;;;;;;27.00;33.46;101692.41;3581428;40;20047;-72
2023/06/15 08:25:43;;;;;;;8.70;3.70;;;;;;;26.97;31.46;101692.78;3580727;39;20048;-72
2023/06/15 08:28:09;;;;;;;5.88;2.83;;;;;;;27.15;33.63;101699.94;3582653;39;20059;-72
2023/06/15 08:30:35;;;;;;;3.40;2.83;;;;;;;27.37;32.09;101698.22;3582745;39;20160;-73
2023/06/15 08:33:01;;;;;;;6.82;3.20;;;;;;;27.43;32.27;101703.84;3584535;40;20055;-72
2023/06/15 08:35:26;;;;;;;7.60;3.45;;;;;;;27.57;33.17;101699.44;3582815;40;20386;-72
2023/06/15 08:37:52;;;;;;;4.00;3.05;;;;;;;27.68;31.22;101699.00;3583582;40;20280;-72
2023/06/15 08:40:20;;;;;;;4.72;3.03;;;;;;;27.69;31.82;101697.13;3573941;40;20051;-73
2023/06/15 08:42:46;;;;;;;2.75;2.53;;;;;;;27.58;31.52;101658.88;3582582;40;20579;-72
2023/06/15 08:45:12;;;;;;;3.78;2.95;;;;;;;27.95;31.27;101692.03;3577213;40;20141;-72
2023/06/15 08:47:40;;;;;;;4.60;2.90;;;;;;;28.04;30.29;101694.72;3581830;40;20056;-71
2023/06/15 08:50:06;;;;;;;4.78;2.65;;;;;;;28.08;30.39;101688.63;3583126;39;20088;-71
2023/06/15 08:52:37;;;;;;;4.63;2.97;;;;;;;27.94;30.94;101657.19;3583287;40;20048;-71
2023/06/15 08:55:04;;;;;;;4.47;3.03;;;;;;;28.19;29.91;101688.16;3585532;40;20393;-71
2023/06/15 08:57:32;;;;;;;5.47;3.03;;;;;;;28.27;29.67;101687.22;3586469;39;20044;-71
2023/06/15 09:00:08;;;;;;;4.97;2.70;;;;;;;28.45;29.40;101687.72;3584771;40;20412;-71
2023/06/15 09:02:42;;;;;;;4.50;2.92;;;;;;;28.44;27.74;101674.91;3581239;40;20044;-71
2023/06/15 09:05:08;;;;;;;6.30;3.10;;;;;;;28.44;30.83;101679.59;3581539;40;20189;-72
2023/06/15 09:07:35;;;;;;;4.78;2.58;;;;;;;28.42;28.66;101676.19;3583939;40;20056;-71
2023/06/15 09:10:13;;;;;;;6.70;3.85;;;;;;;28.76;29.76;101678.31;3583331;40;20052;-72
2023/06/15 09:12:57;;;;;;;5.25;3.97;;;;;;;28.74;27.87;101683.19;3581772;39;20064;-72
2023/06/15 09:15:32;;;;;;;6.97;2.95;;;;;;;28.61;29.83;101685.81;3580956;40;20068;-72
2023/06/15 09:18:00;;;;;;;7.07;3.20;;;;;;;28.34;29.68;101646.66;3582521;40;20064;-72
2023/06/15 09:20:36;;;;;;;3.85;2.70;;;;;;;28.74;27.98;101677.66;3582163;39;20063;-72
2023/06/15 09:23:05;;;;;;;5.80;3.00;;;;;;;28.84;28.07;101674.59;3584722;39;20064;-72
2023/06/15 09:25:36;;;;;;;9.10;2.90;;;;;;;29.07;28.44;101691.06;3585387;39;20048;-72
2023/06/15 09:28:07;;;;;;;4.70;3.25;;;;;;;29.33;28.54;101691.31;3582509;40;20442;-73
2023/06/15 09:30:41;;;;;;;3.83;2.88;;;;;;;29.43;27.42;101684.59;3581202;40;20060;-72
2023/06/15 09:33:19;;;;;;;7.72;3.08;;;;;;;29.75;27.76;101695.19;3580566;40;20479;-72
2023/06/15 09:36:02;;;;;;;4.03;2.80;;;;;;;29.69;26.76;101687.66;3579733;40;20630;-72
2023/06/15 09:38:40;;;;;;;4.20;3.00;;;;;;;29.54;28.01;101686.84;3581400;40;20061;-71
2023/06/15 09:41:07;;;;;;;5.90;3.38;;;;;;;29.56;28.46;101684.72;3581223;39;20771;-72
2023/06/15 09:43:37;;;;;;;9.20;3.33;;;;;;;29.59;27.99;101682.44;3581750;40;20067;-71
2023/06/15 09:46:11;;;;;;;3.47;2.70;;;;;;;29.56;27.29;101670.88;3583749;40;20331;-72
2023/06/15 09:48:38;;;;;;;4.35;2.97;;;;;;;29.71;26.91;101671.69;3581130;40;20198;-71
2023/06/15 09:51:03;;;;;;;5.57;3.00;;;;;;;29.67;26.20;101659.28;3582681;39;20814;-71
2023/06/15 09:53:31;;;;;;;4.07;2.72;;;;;;;29.99;27.32;101679.16;3584475;39;20283;-71
2023/06/15 09:55:59;;;;;;;4.25;3.00;;;;;;;29.74;27.26;101679.59;3581527;40;20165;-71
2023/06/15 09:58:25;;;;;;;5.80;2.97;;;;;;;29.62;25.33;101675.66;3580954;40;20322;-71
2023/06/15 10:00:57;;;;;;;5.38;3.03;;;;;;;29.27;26.29;101677.41;3580094;40;20056;-71
2023/06/15 10:03:25;;;;;;;9.10;3.35;;;;;;;29.52;27.09;101684.25;3577912;40;20070;-71
2023/06/15 10:05:59;;;;;;;4.88;3.08;;;;;;;29.55;25.08;101677.47;3581323;40;20062;-71
2023/06/15 10:08:30;;;;;;;3.95;2.90;;;;;;;29.64;25.87;101681.84;3584532;39;20081;-72
2023/06/15 10:10:58;;;;;;;3.10;2.90;;;;;;;29.43;25.37;101685.47;3580698;39;20117;-71
2023/06/15 10:13:48;;;;;;;5.53;2.90;;;;;;;29.25;26.86;101672.09;3580839;40;21380;-71
2023/06/15 10:16:20;;;;;;;5.68;2.95;;;;;;;29.12;26.73;101666.41;3580830;40;20404;-70
2023/06/15 10:18:57;;;;;;;4.00;3.10;;;;;;;29.05;27.71;101673.78;3584382;39;20380;-71
2023/06/15 10:21:29;;;;;;;3.03;2.83;;;;;;;29.37;27.82;101664.97;3580751;40;20381;-71
2023/06/15 10:24:02;;;;;;;3.95;3.00;;;;;;;29.84;26.72;101671.81;3580815;40;20056;-71
2023/06/15 10:26:30;;;;;;;5.80;3.20;;;;;;;29.45;28.21;101591.94;3580298;40;20052;-72
2023/06/15 10:29:20;;;;;;;5.60;2.80;;;;;;;30.11;24.56;101677.53;3580736;40;20056;-72
2023/06/15 10:32:08;;;;;;;3.92;2.60;;;;;;;30.44;25.66;101666.63;3580292;40;20056;-71
2023/06/15 10:34:52;;;;;;;6.25;3.20;;;;;;;30.49;26.00;101671.59;3579930;40;20052;-71
2023/06/15 10:38:24;;;;;;;6.57;3.15;;;;;;;30.76;24.83;101681.75;3580038;39;20074;-72
2023/06/15 10:40:52;;;;;;;4.82;3.08;;;;;;;30.93;24.83;101682.25;3529208;40;20417;-72
2023/06/15 10:43:26;;;;;;;7.00;2.60;;;;;;;30.61;24.05;101678.25;3527872;40;20058;-71
2023/06/15 10:45:52;;;;;;;3.30;2.90;;;;;;;30.42;25.99;101670.72;3566763;40;20369;-72
2023/06/15 10:48:28;;;;;;;4.00;2.70;;;;;;;30.57;26.15;101670.53;3580660;40;20194;-72
2023/06/15 10:51:08;;;;;;;4.85;2.97;;;;;;;30.57;24.34;101654.75;3582682;39;20048;-72
2023/06/15 10:53:42;;;;;;;6.03;2.65;;;;;;;30.90;25.12;101670.72;3582920;40;20410;-71
2023/06/15 10:56:20;;;;;;;4.63;2.90;;;;;;;30.64;24.36;101661.19;3580285;40;20044;-71
2023/06/15 10:59:00;;;;;;;5.07;3.28;;;;;;;30.25;24.41;101668.25;3579712;40;20367;-71
2023/06/15 11:01:29;;;;;;;4.03;3.30;;;;;;;29.97;25.53;101665.50;3579733;40;20052;-71
2023/06/15 11:03:56;;;;;;;5.95;3.33;;;;;;;29.68;26.18;101660.13;3581855;39;20067;-71
2023/06/15 11:06:36;;;;;;;4.93;3.40;;;;;;;29.71;25.38;101663.34;3578789;39;20064;-71
2023/06/15 11:09:15;;;;;;;4.50;3.10;;;;;;;29.94;26.36;101667.78;3582339;40;20157;-71
2023/06/15 11:11:43;;;;;;;5.20;2.88;;;;;;;30.24;25.75;101672.09;3579420;40;20060;-72
2023/06/15 11:14:18;;;;;;;5.40;3.17;;;;;;;30.08;25.92;101675.16;3581313;39;20048;-71
2023/06/15 11:16:43;;;;;;;3.28;2.97;;;;;;;29.77;26.44;101670.88;3579328;39;20096;-70
2023/06/15 11:19:12;;;;;;;3.50;3.20;;;;;;;29.59;25.54;101668.59;3580367;39;20389;-71
2023/06/15 11:22:04;;;;;;;3.60;2.83;;;;;;;29.24;27.74;101670.38;3585780;40;20466;-71
2023/06/15 11:24:39;;;;;;;3.85;3.20;;;;;;;29.51;26.66;101667.84;3575572;40;20048;-71
2023/06/15 11:27:09;;;;;;;5.88;3.13;;;;;;;29.69;26.86;101659.94;3580155;40;20117;-71
2023/06/15 11:29:43;;;;;;;3.42;3.13;;;;;;;29.60;27.23;101652.81;3578446;40;20161;-71